This is the latest recevied weather packets stored in our database for station/object GW1477. If no packets are shown the sender has not sent any weather packets the latest 10 day(s).
| Time | Temp. | Humidity | Pressure | Rain* | Wind** | Luminosity | Snow |
|---|---|---|---|---|---|---|---|
| 1777395648 | 14.44° C | 82% | - | 0 mm | - | - | - |
| 1777394924 | 13.89° C | 83% | - | 0 mm | - | - | - |
| 1777394204 | 13.33° C | 84% | - | 0 mm | - | - | - |
| 1777392753 | 13.33° C | 84% | - | 0 mm | - | - | - |
| 1777388784 | 11.67° C | 88% | - | 0 mm | - | - | - |
| 1777388451 | 11.11° C | 89% | - | 0 mm | - | - | - |
| 1777382664 | 8.89° C | 94% | - | 0 mm | - | - | - |
| 1777380158 | 8.89° C | 95% | - | 0 mm | - | - | - |
| 1777379789 | 8.89° C | 95% | - | 0 mm | - | - | - |
| 1777379443 | 8.89° C | 95% | - | 0 mm | - | - | - |
| 1777377651 | 8.33° C | 95% | - | 0 mm | - | - | - |
| 1777376930 | 8.33° C | 95% | - | 0 mm | - | - | - |
| 1777374051 | 7.78° C | 96% | - | 0 mm | - | - | - |
| 1777373323 | 7.78° C | 96% | - | 0 mm | - | - | - |
| 1777371886 | 7.78° C | 96% | - | 0 mm | - | - | - |
| 1777371509 | 7.78° C | 96% | - | 0 mm | - | - | - |
| 1777367892 | 7.78° C | 94% | - | 0 mm | - | - | - |
| 1777366827 | 7.78° C | 93% | - | 0 mm | - | - | - |
| 1777366464 | 7.78° C | 92% | - | 0 mm | - | - | - |
| 1777365750 | 7.78° C | 91% | - | 0 mm | - | - | - |
| 1777363960 | 8.33° C | 87% | - | 0 mm | - | - | - |
| 1777361788 | 10° C | 71% | - | 0 mm | - | - | - |
| 1777360346 | 10.56° C | 70% | - | 0 mm | - | - | - |
| 1777356025 | 10.56° C | 69% | - | 0 mm | - | - | - |
| 1777350613 | 11.11° C | 67% | - | 0 mm | - | - | - |
* Rain since midnight (hover to see other rain measurements)
** Current wind speed in m/s (hover to see current wind gust speed)